createdAt,value
2023-02-13T00:00:32.365Z,7.70
2023-02-13T00:03:38.282Z,6.50
2023-02-13T00:06:40.700Z,5.90
2023-02-13T00:09:42.670Z,6.53
2023-02-13T00:12:48.401Z,5.80
2023-02-13T00:16:01.836Z,5.87
2023-02-13T00:19:04.638Z,5.83
2023-02-13T00:22:08.733Z,9.57
2023-02-13T00:25:11.242Z,6.13
2023-02-13T00:28:13.415Z,6.73
2023-02-13T00:31:23.767Z,6.60
2023-02-13T00:34:25.908Z,5.27
2023-02-13T00:37:29.749Z,5.30
2023-02-13T00:40:31.842Z,5.93
2023-02-13T00:43:34.391Z,5.43
2023-02-13T00:46:36.717Z,5.40
2023-02-13T00:49:38.825Z,6.53
2023-02-13T00:52:40.846Z,5.13
2023-02-13T00:55:43.275Z,5.37
2023-02-13T00:58:45.517Z,5.13
2023-02-13T01:01:47.602Z,6.10
2023-02-13T01:04:49.648Z,7.40
2023-02-13T01:07:52.581Z,7.03
2023-02-13T01:10:55.772Z,4.93
2023-02-13T01:13:58.082Z,5.83
2023-02-13T01:17:00.434Z,5.87
2023-02-13T01:20:02.488Z,6.47
2023-02-13T01:23:06.091Z,6.40
2023-02-13T01:26:17.923Z,5.85
2023-02-13T01:29:20.207Z,5.33
2023-02-13T01:32:22.871Z,6.20
2023-02-13T01:35:24.885Z,4.40
2023-02-13T01:38:26.880Z,5.47
2023-02-13T01:41:30.575Z,7.27
2023-02-13T01:44:47.740Z,6.53
2023-02-13T01:47:54.320Z,5.97
2023-02-13T01:51:04.699Z,5.30
2023-02-13T01:54:18.204Z,4.57
2023-02-13T01:57:25.426Z,5.47
2023-02-13T02:00:29.245Z,3.77
2023-02-13T02:03:35.299Z,5.90
2023-02-13T02:06:48.946Z,6.10
2023-02-13T02:09:54.255Z,6.43
2023-02-13T02:13:03.163Z,6.23
2023-02-13T02:16:05.549Z,4.63
2023-02-13T02:19:47.371Z,4.43
2023-02-13T02:23:04.048Z,4.40
2023-02-13T02:26:20.839Z,4.20
2023-02-13T02:29:49.825Z,4.77
2023-02-13T02:33:33.386Z,4.77
2023-02-13T02:36:58.518Z,5.27
2023-02-13T02:40:12.430Z,4.03
2023-02-13T02:43:23.482Z,5.47
2023-02-13T02:46:36.372Z,6.40
2023-02-13T02:50:02.432Z,5.73
2023-02-13T02:53:29.968Z,5.20
2023-02-13T02:56:40.919Z,6.20
2023-02-13T03:00:03.412Z,5.83
2023-02-13T03:03:40.344Z,5.30
2023-02-13T03:06:54.301Z,4.83
2023-02-13T03:10:27.816Z,5.83
2023-02-13T03:13:43.972Z,6.30
2023-02-13T03:17:05.402Z,7.80
2023-02-13T03:20:52.807Z,4.33
2023-02-13T03:24:23.001Z,5.43
2023-02-13T03:27:44.949Z,4.87
2023-02-13T03:30:50.237Z,5.03
2023-02-13T03:34:04.206Z,4.87
2023-02-13T03:37:29.879Z,6.27
2023-02-13T03:44:04.230Z,5.83
2023-02-13T03:47:08.155Z,5.13
2023-02-13T03:50:13.414Z,5.73
2023-02-13T03:53:20.951Z,6.43
2023-02-13T03:56:44.550Z,5.90
2023-02-13T03:59:47.212Z,5.63
2023-02-13T04:03:01.358Z,5.07
2023-02-13T04:06:09.701Z,5.80
2023-02-13T04:09:11.910Z,5.10
2023-02-13T04:12:25.538Z,5.30
2023-02-13T04:15:39.076Z,5.60
2023-02-13T04:18:42.564Z,5.67
2023-02-13T04:21:44.809Z,6.73
2023-02-13T04:24:47.318Z,6.13
2023-02-13T04:27:49.561Z,7.83
2023-02-13T04:30:51.957Z,6.00
2023-02-13T04:33:54.119Z,5.07
2023-02-13T04:36:56.140Z,6.07
2023-02-13T04:39:58.164Z,5.87
2023-02-13T04:43:01.315Z,6.63
2023-02-13T04:46:04.823Z,5.80
2023-02-13T04:49:06.933Z,7.53
2023-02-13T04:52:09.069Z,6.00
2023-02-13T04:55:11.579Z,5.90
2023-02-13T04:58:13.951Z,6.23
2023-02-13T05:01:17.214Z,7.57
2023-02-13T05:04:20.495Z,6.90
2023-02-13T05:07:23.516Z,6.20
2023-02-13T05:10:27.051Z,7.87
2023-02-13T05:13:29.101Z,6.33
2023-02-13T05:16:32.426Z,6.57
2023-02-13T05:23:01.887Z,7.67
2023-02-13T05:26:03.944Z,5.97
2023-02-13T05:29:19.041Z,6.47
2023-02-13T05:32:21.046Z,7.37
2023-02-13T05:35:23.496Z,5.37
2023-02-13T05:38:25.527Z,6.90
2023-02-13T05:41:27.655Z,5.60
2023-02-13T05:44:29.686Z,7.07
2023-02-13T05:47:31.728Z,8.50
2023-02-13T05:50:33.783Z,7.23
2023-02-13T05:53:36.220Z,6.57
2023-02-13T05:56:38.357Z,6.53
2023-02-13T05:59:40.409Z,6.93
2023-02-13T06:02:42.886Z,7.67
2023-02-13T06:05:45.176Z,8.10
2023-02-13T06:08:47.392Z,6.73
2023-02-13T06:11:50.384Z,6.10
2023-02-13T06:14:52.636Z,7.40
2023-02-13T06:17:54.701Z,8.60
2023-02-13T06:20:57.080Z,6.37
2023-02-13T06:24:00.466Z,6.17
2023-02-13T06:27:02.453Z,7.27
2023-02-13T06:30:04.694Z,7.93
2023-02-13T06:33:06.853Z,6.93
2023-02-13T06:36:09.001Z,5.80
2023-02-13T06:39:12.434Z,6.23
2023-02-13T06:42:14.511Z,6.60
2023-02-13T06:45:16.678Z,6.10
2023-02-13T06:48:18.989Z,6.67
2023-02-13T06:51:21.381Z,5.70
2023-02-13T06:54:37.137Z,6.60
2023-02-13T06:57:46.477Z,6.10
2023-02-13T07:00:48.868Z,5.83
2023-02-13T07:03:50.958Z,6.10
2023-02-13T07:06:57.091Z,6.97
2023-02-13T07:10:00.222Z,6.87
2023-02-13T07:13:05.984Z,7.07
2023-02-13T07:16:10.224Z,7.13
2023-02-13T07:19:12.336Z,4.97
2023-02-13T07:22:14.404Z,6.97
2023-02-13T07:25:16.664Z,5.30
2023-02-13T07:28:19.125Z,8.30
2023-02-13T07:31:21.399Z,5.17
2023-02-13T07:34:23.415Z,5.53
2023-02-13T07:37:27.417Z,7.27
2023-02-13T07:40:29.620Z,5.73
2023-02-13T07:43:32.043Z,6.03
2023-02-13T07:46:34.203Z,11.47
2023-02-13T07:49:37.117Z,6.50
2023-02-13T07:52:39.301Z,6.50
2023-02-13T07:55:41.424Z,6.00
2023-02-13T07:58:44.885Z,4.87
2023-02-13T08:01:47.066Z,6.40
2023-02-13T08:04:49.145Z,5.17
2023-02-13T08:07:51.366Z,5.63
2023-02-13T08:11:12.519Z,5.57
2023-02-13T08:14:14.501Z,6.03
2023-02-13T08:17:16.611Z,6.80
2023-02-13T08:20:19.013Z,6.30
2023-02-13T08:23:21.232Z,5.93
2023-02-13T08:26:23.504Z,6.07
2023-02-13T08:29:25.561Z,5.80
2023-02-13T08:32:27.838Z,7.30
2023-02-13T08:35:31.702Z,6.73
2023-02-13T08:38:34.402Z,7.07
2023-02-13T08:41:36.786Z,4.90
2023-02-13T08:44:41.179Z,5.33
2023-02-13T08:47:43.251Z,4.63
2023-02-13T08:50:45.465Z,4.87
2023-02-13T08:53:47.610Z,5.63
2023-02-13T08:56:49.673Z,4.70
2023-02-13T08:59:51.894Z,5.67
2023-02-13T09:02:54.122Z,4.60
2023-02-13T09:06:00.583Z,4.70
2023-02-13T09:09:05.684Z,4.93
2023-02-13T09:12:08.284Z,4.60
2023-02-13T09:15:10.759Z,5.20
2023-02-13T09:18:13.954Z,4.10
2023-02-13T09:21:16.973Z,5.27
2023-02-13T09:24:18.984Z,5.37
2023-02-13T09:27:22.148Z,5.37
2023-02-13T09:30:24.707Z,7.30
2023-02-13T09:33:29.172Z,5.73
2023-02-13T09:36:31.217Z,7.80
2023-02-13T09:39:33.239Z,5.77
2023-02-13T09:42:37.181Z,7.30
2023-02-13T09:45:39.868Z,5.27
2023-02-13T09:48:45.629Z,5.87
2023-02-13T09:51:56.072Z,7.20
2023-02-13T09:54:58.159Z,6.40
2023-02-13T09:58:21.993Z,4.40
2023-02-13T10:01:37.914Z,4.90
2023-02-13T10:04:49.020Z,5.93
2023-02-13T10:07:57.054Z,5.37
2023-02-13T10:11:07.931Z,7.03
2023-02-13T10:14:18.299Z,5.73
2023-02-13T10:17:45.472Z,6.27
2023-02-13T10:21:02.385Z,6.27
2023-02-13T10:24:27.724Z,6.17
2023-02-13T10:27:36.286Z,5.35
2023-02-13T10:30:52.196Z,4.80
2023-02-13T10:34:02.922Z,5.13
2023-02-13T10:37:13.941Z,4.97
2023-02-13T10:40:16.081Z,5.13
2023-02-13T10:43:21.351Z,4.20
2023-02-13T10:46:34.095Z,5.57
2023-02-13T10:49:57.415Z,5.28
2023-02-13T10:53:43.318Z,6.80
2023-02-13T10:57:16.546Z,3.90
2023-02-13T11:00:45.841Z,5.22
2023-02-13T11:04:00.424Z,4.78
2023-02-13T11:07:04.900Z,4.32
2023-02-13T11:10:17.957Z,5.03
2023-02-13T11:13:26.275Z,3.83
2023-02-13T11:16:48.832Z,5.13
2023-02-13T11:19:59.713Z,4.13
2023-02-13T11:23:29.724Z,3.90
2023-02-13T11:26:37.128Z,4.38
2023-02-13T11:29:57.091Z,4.20
2023-02-13T11:33:04.143Z,3.70
2023-02-13T11:36:16.100Z,5.07
2023-02-13T11:39:25.155Z,4.38
2023-02-13T11:42:37.236Z,4.50
2023-02-13T11:45:39.560Z,5.07
2023-02-13T11:48:43.105Z,3.60
2023-02-13T11:51:48.775Z,3.87
2023-02-13T11:55:05.188Z,4.27
2023-02-13T11:58:16.795Z,4.63
2023-02-13T12:01:26.871Z,4.07
2023-02-13T12:04:29.339Z,4.03
2023-02-13T12:07:33.587Z,4.17
2023-02-13T12:10:38.724Z,3.30
2023-02-13T12:13:42.197Z,3.97
2023-02-13T12:16:51.263Z,4.23
2023-02-13T12:19:55.974Z,3.83
2023-02-13T12:23:20.078Z,5.97
2023-02-13T12:26:38.219Z,3.97
2023-02-13T12:30:05.974Z,4.17
2023-02-13T12:33:16.776Z,4.87
2023-02-13T12:36:36.124Z,5.65
2023-02-13T12:39:46.054Z,3.40
2023-02-13T12:43:12.769Z,3.23
2023-02-13T12:46:40.081Z,3.23
2023-02-13T12:49:45.129Z,4.27
2023-02-13T12:52:59.676Z,5.53
2023-02-13T12:56:18.723Z,2.83
2023-02-13T12:59:37.055Z,4.83
2023-02-13T13:02:45.196Z,4.53
2023-02-13T13:06:12.951Z,4.50
2023-02-13T13:09:28.488Z,3.93
2023-02-13T13:13:01.327Z,4.07
2023-02-13T13:16:35.945Z,4.47
2023-02-13T13:19:38.177Z,3.77
2023-02-13T13:22:53.727Z,4.50
2023-02-13T13:25:55.798Z,4.53
2023-02-13T13:29:01.233Z,3.87
2023-02-13T13:32:07.661Z,5.03
2023-02-13T13:35:15.311Z,4.72
2023-02-13T13:38:25.538Z,3.67
2023-02-13T13:41:48.823Z,3.00
2023-02-13T13:44:50.748Z,3.17
2023-02-13T13:48:06.396Z,4.27
2023-02-13T13:51:14.189Z,4.17
2023-02-13T13:54:23.843Z,4.17
2023-02-13T13:57:27.731Z,4.30
2023-02-13T14:03:37.111Z,4.10
2023-02-13T14:06:44.964Z,2.57
2023-02-13T14:09:47.046Z,5.50
2023-02-13T14:12:59.896Z,3.47
2023-02-13T14:16:03.296Z,3.80
2023-02-13T14:19:23.022Z,5.75
2023-02-13T14:22:28.064Z,3.53
2023-02-13T14:25:32.611Z,4.77
2023-02-13T14:28:36.032Z,4.40
2023-02-13T14:31:44.161Z,3.47
2023-02-13T14:35:01.212Z,4.30
2023-02-13T14:38:08.180Z,3.67
2023-02-13T14:41:49.400Z,3.95
2023-02-13T14:45:04.355Z,3.80
2023-02-13T14:48:12.786Z,3.92
2023-02-13T14:51:45.205Z,4.57
2023-02-13T14:54:54.579Z,3.07
2023-02-13T14:58:28.097Z,4.00
2023-02-13T15:01:50.194Z,3.27
2023-02-13T15:05:02.086Z,3.97
2023-02-13T15:08:24.197Z,2.50
2023-02-13T15:11:38.502Z,5.30
2023-02-13T15:14:40.846Z,3.15
2023-02-13T15:17:42.948Z,3.47
2023-02-13T15:20:46.326Z,3.93
2023-02-13T15:23:55.554Z,3.63
2023-02-13T15:27:02.389Z,4.10
2023-02-13T15:30:20.514Z,4.67
2023-02-13T15:33:24.601Z,5.13
2023-02-13T15:36:34.730Z,3.63
2023-02-13T15:39:36.734Z,4.73
2023-02-13T15:42:39.988Z,3.17
2023-02-13T15:45:44.464Z,3.97
2023-02-13T15:48:47.017Z,3.55
2023-02-13T15:51:50.366Z,3.90
2023-02-13T15:54:55.020Z,4.50
2023-02-13T16:01:05.988Z,4.60
2023-02-13T16:04:12.607Z,4.07
2023-02-13T16:07:15.078Z,5.80
2023-02-13T16:10:35.303Z,4.90
2023-02-13T16:13:37.443Z,3.43
2023-02-13T16:17:05.062Z,4.97
2023-02-13T16:20:09.094Z,3.97
2023-02-13T16:23:21.537Z,3.72
2023-02-13T16:26:24.140Z,4.83
2023-02-13T16:29:27.691Z,4.13
2023-02-13T16:32:38.958Z,4.10
2023-02-13T16:35:49.204Z,3.57
2023-02-13T16:38:51.488Z,4.60
2023-02-13T16:41:54.875Z,4.05
2023-02-13T16:45:23.969Z,4.35
2023-02-13T16:48:26.554Z,5.33
2023-02-13T16:51:37.437Z,4.40
2023-02-13T16:54:55.901Z,3.40
2023-02-13T16:58:05.156Z,4.10
2023-02-13T17:01:07.389Z,4.10
2023-02-13T17:04:23.887Z,3.85
2023-02-13T17:07:29.056Z,3.67
2023-02-13T17:10:34.546Z,4.43
2023-02-13T17:13:37.680Z,4.83
2023-02-13T17:16:40.056Z,4.60
2023-02-13T17:19:44.565Z,3.00
2023-02-13T17:22:53.131Z,4.05
2023-02-13T17:25:55.637Z,4.03
2023-02-13T17:28:58.274Z,3.97
2023-02-13T17:32:00.827Z,5.33
2023-02-13T17:35:03.123Z,4.38
2023-02-13T17:38:06.531Z,3.13
2023-02-13T17:41:17.661Z,3.65
2023-02-13T17:44:19.747Z,4.80
2023-02-13T17:47:22.439Z,5.47
2023-02-13T17:50:28.970Z,5.23
2023-02-13T17:53:31.646Z,5.63
2023-02-13T17:56:33.676Z,3.97
2023-02-13T17:59:35.693Z,3.30
2023-02-13T18:02:37.744Z,3.50
2023-02-13T18:05:48.228Z,5.03
2023-02-13T18:08:50.434Z,4.27
2023-02-13T18:12:04.884Z,3.67
2023-02-13T18:15:08.000Z,4.53
2023-02-13T18:18:12.066Z,4.03
2023-02-13T18:21:14.086Z,4.80
2023-02-13T18:24:16.140Z,4.10
2023-02-13T18:27:18.350Z,4.93
2023-02-13T18:30:21.084Z,4.70
2023-02-13T18:33:28.010Z,5.20
2023-02-13T18:36:30.372Z,5.47
2023-02-13T18:39:34.390Z,4.87
2023-02-13T18:42:36.519Z,4.97
2023-02-13T18:45:39.053Z,4.47
2023-02-13T18:48:41.108Z,6.07
2023-02-13T18:51:44.543Z,6.27
2023-02-13T18:54:46.515Z,4.90
2023-02-13T18:57:52.657Z,5.73
2023-02-13T19:00:54.838Z,5.23
2023-02-13T19:03:57.337Z,4.37
2023-02-13T19:06:59.414Z,3.53
2023-02-13T19:10:01.499Z,4.40
2023-02-13T19:13:03.637Z,4.43
2023-02-13T19:16:12.499Z,4.30
2023-02-13T19:19:14.558Z,4.20
2023-02-13T19:22:16.719Z,4.37
2023-02-13T19:25:19.200Z,4.20
2023-02-13T19:28:21.686Z,5.23
2023-02-13T19:31:27.091Z,4.20
2023-02-13T19:34:29.723Z,4.17
2023-02-13T19:37:43.056Z,4.87
2023-02-13T19:40:46.137Z,4.97
2023-02-13T19:43:51.412Z,4.57
2023-02-13T19:46:53.593Z,4.60
2023-02-13T19:49:55.725Z,4.87
2023-02-13T19:52:58.076Z,4.50
2023-02-13T19:56:00.459Z,5.37
2023-02-13T19:59:03.034Z,4.80
2023-02-13T20:02:05.139Z,6.00
2023-02-13T20:05:08.913Z,5.50
2023-02-13T20:08:11.277Z,5.03
2023-02-13T20:11:15.162Z,5.40
2023-02-13T20:14:17.480Z,6.33
2023-02-13T20:17:19.743Z,6.33
2023-02-13T20:20:22.012Z,5.27
2023-02-13T20:23:24.300Z,6.83
2023-02-13T20:26:26.352Z,5.67
2023-02-13T20:29:28.461Z,8.10
2023-02-13T20:32:30.854Z,6.60
2023-02-13T20:35:32.976Z,6.30
2023-02-13T20:38:35.347Z,7.10
2023-02-13T20:41:38.464Z,7.20
2023-02-13T20:44:40.474Z,6.87
2023-02-13T20:47:43.076Z,7.77
2023-02-13T20:50:45.450Z,7.83
2023-02-13T20:53:48.489Z,6.47
2023-02-13T20:56:50.938Z,6.90
2023-02-13T20:59:53.203Z,8.03
2023-02-13T21:02:55.200Z,7.77
2023-02-13T21:05:57.301Z,8.00
2023-02-13T21:08:59.950Z,7.77
2023-02-13T21:12:02.264Z,7.23
2023-02-13T21:15:04.374Z,8.00
2023-02-13T21:18:06.476Z,9.33
2023-02-13T21:21:10.708Z,7.30
2023-02-13T21:24:16.886Z,5.22
2023-02-13T21:27:19.119Z,4.90
2023-02-13T21:30:21.805Z,6.00
2023-02-13T21:33:24.720Z,5.03
2023-02-13T21:36:27.203Z,5.00
2023-02-13T21:39:30.349Z,6.47
2023-02-13T21:42:34.581Z,7.57
2023-02-13T21:45:36.636Z,6.37
2023-02-13T21:48:41.436Z,6.47
2023-02-13T21:51:43.540Z,5.80
2023-02-13T21:54:47.948Z,6.63
2023-02-13T22:00:52.388Z,6.30
2023-02-13T22:04:02.904Z,6.40
2023-02-13T22:07:04.988Z,5.93
2023-02-13T22:10:07.708Z,6.43
2023-02-13T22:13:09.738Z,6.93
2023-02-13T22:16:14.229Z,6.53
2023-02-13T22:19:16.646Z,5.70
2023-02-13T22:22:18.671Z,5.97
2023-02-13T22:25:20.739Z,6.70
2023-02-13T22:28:22.777Z,8.30
2023-02-13T22:31:26.233Z,8.03
2023-02-13T22:34:28.812Z,7.00
2023-02-13T22:37:31.152Z,6.60
2023-02-13T22:40:34.983Z,6.17
2023-02-13T22:43:38.120Z,7.87
2023-02-13T22:46:40.335Z,8.00
2023-02-13T22:49:43.498Z,9.17
2023-02-13T22:52:45.647Z,9.17
2023-02-13T22:55:47.712Z,8.73
2023-02-13T22:58:49.799Z,8.97
2023-02-13T23:01:51.984Z,9.43
2023-02-13T23:04:54.169Z,10.23
2023-02-13T23:07:56.217Z,7.67
2023-02-13T23:11:16.760Z,8.23
2023-02-13T23:14:22.214Z,7.60
2023-02-13T23:17:42.991Z,8.87
2023-02-13T23:20:45.411Z,8.53
2023-02-13T23:23:49.899Z,6.90
2023-02-13T23:26:52.271Z,7.40
2023-02-13T23:29:54.668Z,7.20
2023-02-13T23:32:58.767Z,7.87
2023-02-13T23:36:00.890Z,8.07
2023-02-13T23:39:03.224Z,7.03
2023-02-13T23:42:05.349Z,7.63
2023-02-13T23:45:08.804Z,8.13
2023-02-13T23:48:12.892Z,7.23
2023-02-13T23:51:14.955Z,7.70
2023-02-13T23:54:22.757Z,6.07
2023-02-13T23:57:24.872Z,8.10
